Time;durP1;ratioP1;P1;durP2;ratioP2;P2;SDS_P1;SDS_P2;PMS_P1;PMS_P2;Temp;Humidity;BMP_temperature;BMP_pressure;BME280_temperature;BME280_humidity;BME280_pressure;Samples;Min_cycle;Max_cycle;Signal;HPM_P1;HPM_P2
2023/06/06 00:00:19;;;;;;;2.60;2.40;;;;;;;13.50;100.00;96928.16;5047969;28;20285;-62
2023/06/06 00:02:48;;;;;;;2.47;2.37;;;;;;;13.48;100.00;96917.75;4994574;28;20211;-66
2023/06/06 00:05:17;;;;;;;2.43;2.33;;;;;;;13.53;100.00;96917.94;5029842;28;20302;-63
2023/06/06 00:07:46;;;;;;;2.60;2.50;;;;;;;13.51;100.00;96919.16;5045865;28;20733;-64
2023/06/06 00:10:15;;;;;;;2.43;2.33;;;;;;;13.51;100.00;96913.81;5049915;28;20513;-64
2023/06/06 00:12:44;;;;;;;2.50;2.40;;;;;;;13.48;100.00;96911.59;5040619;28;20199;-64
2023/06/06 00:15:13;;;;;;;2.60;2.50;;;;;;;13.43;100.00;96906.88;5037805;28;20311;-64
2023/06/06 00:17:44;;;;;;;2.40;2.30;;;;;;;13.44;100.00;96912.00;4995464;28;20208;-63
2023/06/06 00:20:13;;;;;;;2.43;2.30;;;;;;;13.46;100.00;96912.63;5030699;28;20412;-63
2023/06/06 00:22:42;;;;;;;2.70;2.60;;;;;;;13.44;100.00;96920.00;5048628;28;20234;-65
2023/06/06 00:25:10;;;;;;;2.40;2.30;;;;;;;13.44;100.00;96914.66;5046887;28;20924;-61
2023/06/06 00:27:38;;;;;;;2.60;2.50;;;;;;;13.40;100.00;96899.28;5042034;28;20204;-62
2023/06/06 00:30:07;;;;;;;2.57;2.47;;;;;;;13.50;100.00;96906.88;5025010;28;20212;-62
2023/06/06 00:32:35;;;;;;;2.50;2.40;;;;;;;13.52;100.00;96908.31;5048024;28;20205;-60
2023/06/06 00:35:05;;;;;;;2.93;2.83;;;;;;;13.45;100.00;96910.97;4977568;28;20235;-62
2023/06/06 00:37:32;;;;;;;2.57;2.47;;;;;;;13.51;100.00;96911.16;5047229;28;20748;-65
2023/06/06 00:40:00;;;;;;;2.87;2.67;;;;;;;13.49;100.00;96906.06;5044184;28;20473;-60
2023/06/06 00:42:28;;;;;;;2.40;2.30;;;;;;;13.44;100.00;96905.84;5050704;28;20199;-62
2023/06/06 00:44:55;;;;;;;3.40;2.57;;;;;;;13.43;100.00;96902.38;5021521;28;21110;-63
2023/06/06 00:47:23;;;;;;;2.57;2.47;;;;;;;13.47;100.00;96913.44;5053148;28;20291;-63
2023/06/06 00:49:52;;;;;;;3.03;2.83;;;;;;;13.45;100.00;96908.31;4979178;28;20503;-64
2023/06/06 00:52:21;;;;;;;2.70;2.60;;;;;;;13.43;100.00;96910.38;5052626;28;20203;-62
2023/06/06 00:54:50;;;;;;;2.33;2.23;;;;;;;13.52;100.00;96908.31;5049096;28;20290;-64
2023/06/06 00:57:20;;;;;;;2.47;2.37;;;;;;;13.48;100.00;96904.44;5050495;28;20809;-65
2023/06/06 00:59:48;;;;;;;2.50;2.40;;;;;;;13.54;100.00;96903.59;5024043;28;20253;-64
2023/06/06 01:02:17;;;;;;;2.60;2.50;;;;;;;13.56;100.00;96898.88;5053042;28;20199;-62
2023/06/06 01:04:46;;;;;;;2.80;2.70;;;;;;;13.52;100.00;96904.81;4988098;28;20571;-62
2023/06/06 01:07:16;;;;;;;2.37;2.27;;;;;;;13.55;100.00;96899.91;5045569;28;20292;-64
2023/06/06 01:09:46;;;;;;;2.40;2.30;;;;;;;13.54;100.00;96898.28;5023751;28;20514;-64
2023/06/06 01:12:21;;;;;;;2.57;2.37;;;;;;;13.54;100.00;96902.75;5053063;28;20207;-63
2023/06/06 01:14:52;;;;;;;2.47;2.37;;;;;;;13.59;100.00;96902.94;5022336;28;20316;-63
2023/06/06 01:17:21;;;;;;;2.70;2.60;;;;;;;13.63;100.00;96900.69;5052940;28;20289;-64
2023/06/06 01:19:49;;;;;;;2.80;2.70;;;;;;;13.58;100.00;96898.66;4997595;28;21969;-64
2023/06/06 01:22:22;;;;;;;3.27;3.03;;;;;;;13.60;100.00;96905.41;5030577;28;20203;-66
2023/06/06 01:24:51;;;;;;;2.80;2.70;;;;;;;13.59;100.00;96906.44;5049654;28;20274;-63
2023/06/06 01:27:21;;;;;;;2.80;2.70;;;;;;;13.63;100.00;96906.00;5052228;28;20203;-65
2023/06/06 01:29:49;;;;;;;2.83;2.63;;;;;;;13.57;100.00;96905.84;5023183;28;20789;-63
2023/06/06 01:32:22;;;;;;;3.07;2.93;;;;;;;13.66;100.00;96901.09;5049626;28;20329;-65
2023/06/06 01:34:54;;;;;;;2.83;2.73;;;;;;;13.65;100.00;96901.28;5049903;28;20523;-61
2023/06/06 01:37:31;;;;;;;2.20;2.13;;;;;;;13.60;100.00;96908.06;5002808;28;20312;-65
2023/06/06 01:39:59;;;;;;;2.30;2.20;;;;;;;13.57;100.00;96905.84;5050943;28;20265;-62
2023/06/06 01:42:27;;;;;;;2.97;2.77;;;;;;;13.58;100.00;96899.47;5046291;28;20753;-65
2023/06/06 01:44:57;;;;;;;3.03;2.93;;;;;;;13.65;100.00;96895.97;5050362;28;20934;-63
2023/06/06 01:47:25;;;;;;;2.90;2.80;;;;;;;13.49;100.00;96887.44;5028340;28;20202;-65
2023/06/06 01:49:52;;;;;;;3.17;2.97;;;;;;;13.62;100.00;96905.19;5050948;28;20223;-64
2023/06/06 01:52:21;;;;;;;3.03;2.70;;;;;;;13.58;100.00;96903.97;4998094;28;20822;-65
2023/06/06 01:54:50;;;;;;;2.73;2.63;;;;;;;13.58;100.00;96906.63;5049683;28;20322;-65
2023/06/06 01:57:18;;;;;;;2.67;2.57;;;;;;;13.57;100.00;96905.00;5048529;28;20755;-65
2023/06/06 01:59:45;;;;;;;3.13;2.90;;;;;;;13.57;100.00;96905.00;5043480;28;20404;-63
2023/06/06 02:02:14;;;;;;;3.00;2.80;;;;;;;13.55;100.00;96907.06;5030999;28;20620;-64
2023/06/06 02:04:42;;;;;;;3.03;2.90;;;;;;;13.60;100.00;96909.91;5042771;28;20838;-63
2023/06/06 02:07:11;;;;;;;3.30;3.20;;;;;;;13.61;100.00;96914.19;5049262;28;20652;-63
2023/06/06 02:09:39;;;;;;;3.97;3.77;;;;;;;13.64;100.00;96908.47;4999181;28;20199;-62
2023/06/06 02:12:09;;;;;;;3.10;2.90;;;;;;;13.55;100.00;96910.56;5051689;28;20291;-62
2023/06/06 02:14:37;;;;;;;3.63;3.47;;;;;;;13.55;100.00;96913.22;5042616;28;20823;-62
2023/06/06 02:17:05;;;;;;;3.50;3.30;;;;;;;13.54;100.00;96913.41;5030208;28;20206;-63
2023/06/06 02:19:33;;;;;;;3.43;3.23;;;;;;;13.60;100.00;96910.72;5047192;28;20883;-63
2023/06/06 02:22:01;;;;;;;3.50;3.30;;;;;;;13.63;100.00;96906.00;5053077;28;20305;-62
2023/06/06 02:24:28;;;;;;;3.60;3.40;;;;;;;13.57;100.00;96903.16;4986845;28;20376;-64
2023/06/06 02:26:56;;;;;;;3.67;3.47;;;;;;;13.60;100.00;96910.72;5044737;28;20230;-62
2023/06/06 02:29:25;;;;;;;4.10;3.90;;;;;;;13.53;100.00;96903.78;5044320;28;20223;-66
2023/06/06 02:31:54;;;;;;;4.00;3.80;;;;;;;13.59;100.00;96903.78;5026341;28;20222;-63
2023/06/06 02:34:24;;;;;;;4.47;4.17;;;;;;;13.64;100.00;96902.31;5052649;28;20273;-63
2023/06/06 02:36:53;;;;;;;4.10;3.90;;;;;;;13.66;100.00;96902.94;5048953;28;20272;-62
2023/06/06 02:39:21;;;;;;;4.23;3.93;;;;;;;13.59;100.00;96903.78;4988053;28;20226;-63
2023/06/06 02:41:50;;;;;;;3.97;3.67;;;;;;;13.54;100.00;96908.09;5044945;28;20226;-60
2023/06/06 02:44:19;;;;;;;4.90;4.60;;;;;;;13.58;100.00;96903.97;5040812;28;20222;-63
2023/06/06 02:46:48;;;;;;;4.70;4.40;;;;;;;13.49;100.00;96903.41;5036403;28;20195;-62
2023/06/06 02:49:16;;;;;;;4.13;3.83;;;;;;;13.52;100.00;96905.66;5030856;28;20222;-64
2023/06/06 02:51:43;;;;;;;4.00;3.80;;;;;;;13.51;100.00;96903.19;5052977;28;20297;-65
2023/06/06 02:54:11;;;;;;;4.10;3.90;;;;;;;13.53;100.00;96901.13;5048408;28;20305;-62
2023/06/06 02:56:39;;;;;;;4.77;4.40;;;;;;;13.51;100.00;96904.00;4997750;28;20622;-63
2023/06/06 02:59:07;;;;;;;4.27;3.97;;;;;;;13.45;100.00;96912.84;5050082;28;20202;-63
2023/06/06 03:01:35;;;;;;;4.43;4.23;;;;;;;13.44;100.00;96911.19;5026121;28;20252;-63
2023/06/06 03:04:04;;;;;;;4.27;3.97;;;;;;;13.39;100.00;96910.97;5028592;28;20356;-61
2023/06/06 03:06:32;;;;;;;3.77;3.57;;;;;;;13.41;100.00;96900.91;5048235;28;20408;-60
2023/06/06 03:09:04;;;;;;;4.40;4.10;;;;;;;13.50;100.00;96906.88;5046692;28;20314;-61
2023/06/06 03:11:31;;;;;;;4.53;4.23;;;;;;;13.44;100.00;96912.00;5001574;28;21398;-62
2023/06/06 03:13:59;;;;;;;4.77;4.47;;;;;;;13.42;100.00;96915.84;5034741;28;20230;-62
2023/06/06 03:16:27;;;;;;;4.50;4.30;;;;;;;13.36;100.00;96912.22;5029259;28;20306;-64
2023/06/06 03:18:54;;;;;;;4.60;4.10;;;;;;;13.32;100.00;96911.78;5031711;28;20268;-62
2023/06/06 03:21:23;;;;;;;4.60;4.30;;;;;;;13.34;100.00;96919.59;5049406;28;20293;-64
2023/06/06 03:23:51;;;;;;;5.17;4.80;;;;;;;13.39;100.00;96927.75;5042590;28;20223;-64
2023/06/06 03:26:20;;;;;;;4.67;4.37;;;;;;;13.40;100.00;96917.91;4995916;28;20211;-65
2023/06/06 03:28:47;;;;;;;4.90;4.60;;;;;;;13.43;100.00;96922.84;5048437;28;20702;-63
2023/06/06 03:31:15;;;;;;;4.70;4.40;;;;;;;13.50;100.00;96914.84;5043990;28;20199;-64
2023/06/06 03:33:43;;;;;;;4.80;4.30;;;;;;;13.51;100.00;96921.81;5028762;28;20230;-63
2023/06/06 03:36:11;;;;;;;4.77;4.50;;;;;;;13.51;100.00;96919.97;5032319;28;20243;-64
2023/06/06 03:38:40;;;;;;;5.20;4.73;;;;;;;13.53;100.00;96920.59;5045759;28;20252;-64
2023/06/06 03:41:08;;;;;;;4.60;4.30;;;;;;;13.43;100.00;96921.03;4986809;28;20263;-63
2023/06/06 03:43:36;;;;;;;4.83;4.53;;;;;;;13.52;100.00;96921.63;5046299;28;20423;-64
2023/06/06 03:46:04;;;;;;;5.00;4.60;;;;;;;13.52;100.00;96920.78;5043548;28;20307;-62
2023/06/06 03:48:32;;;;;;;5.23;4.87;;;;;;;13.55;100.00;96923.84;5027564;28;20790;-60
2023/06/06 03:51:00;;;;;;;5.77;4.73;;;;;;;13.48;100.00;96931.06;5033176;28;20293;-63
2023/06/06 03:53:27;;;;;;;5.13;4.73;;;;;;;13.59;100.00;96922.41;5050863;28;20296;-65
2023/06/06 03:55:59;;;;;;;5.20;4.60;;;;;;;13.64;100.00;96924.47;4991456;28;20219;-65
2023/06/06 03:58:26;;;;;;;5.40;5.10;;;;;;;13.65;100.00;96927.91;5044823;28;20199;-64
2023/06/06 04:00:58;;;;;;;5.50;5.10;;;;;;;13.66;100.00;96930.38;5047421;28;20206;-63
2023/06/06 04:03:25;;;;;;;5.83;5.37;;;;;;;13.74;100.00;96924.00;5035158;28;20594;-64
2023/06/06 04:05:54;;;;;;;5.40;5.00;;;;;;;13.76;100.00;96927.25;5027227;28;20309;-64
2023/06/06 04:08:22;;;;;;;5.53;5.13;;;;;;;13.76;100.00;96921.94;5048114;28;20245;-64
2023/06/06 04:10:50;;;;;;;5.77;5.37;;;;;;;13.66;100.00;96916.25;5048730;28;20234;-64
2023/06/06 04:13:19;;;;;;;5.43;5.07;;;;;;;13.61;100.00;96922.19;4994419;28;20372;-67
2023/06/06 04:15:48;;;;;;;5.30;5.00;;;;;;;13.60;100.00;96918.72;5049132;28;20331;-65
2023/06/06 04:18:15;;;;;;;5.37;5.07;;;;;;;13.62;100.00;96934.47;5055273;28;20199;-66
2023/06/06 04:20:44;;;;;;;5.80;5.40;;;;;;;13.64;100.00;96928.94;5034297;28;20203;-64
2023/06/06 04:23:11;;;;;;;4.97;4.67;;;;;;;13.51;100.00;96921.81;5027429;28;20510;-67
2023/06/06 04:25:39;;;;;;;5.87;5.47;;;;;;;13.52;100.00;96923.44;5052027;28;20206;-64
2023/06/06 04:28:07;;;;;;;5.20;4.80;;;;;;;13.44;100.00;96929.81;4999020;28;20217;-67
2023/06/06 04:30:36;;;;;;;5.87;5.40;;;;;;;13.42;100.00;96931.81;5048157;28;20665;-64
2023/06/06 04:33:05;;;;;;;5.90;5.50;;;;;;;13.38;100.00;96933.28;5051714;28;21100;-64
2023/06/06 04:35:32;;;;;;;5.67;5.27;;;;;;;13.37;100.00;96919.16;5031925;28;20405;-65
2023/06/06 04:38:00;;;;;;;5.47;5.07;;;;;;;13.38;100.00;96926.13;5015454;28;20290;-63
2023/06/06 04:40:32;;;;;;;6.27;5.83;;;;;;;13.58;100.00;96930.59;5048787;28;20805;-64
2023/06/06 04:43:23;;;;;;;5.40;4.97;;;;;;;13.60;100.00;96933.84;4991367;28;20230;-66
2023/06/06 04:45:53;;;;;;;6.23;5.63;;;;;;;13.55;100.00;96931.84;5050054;28;20605;-65
2023/06/06 04:48:25;;;;;;;6.03;5.63;;;;;;;13.64;100.00;96935.09;5050370;28;20678;-67
2023/06/06 04:50:53;;;;;;;5.90;5.50;;;;;;;13.64;100.00;96928.94;5031022;28;20421;-64
2023/06/06 04:53:21;;;;;;;5.83;5.43;;;;;;;13.64;100.00;96928.94;5030275;28;20891;-66
2023/06/06 04:55:49;;;;;;;5.37;4.97;;;;;;;13.78;100.00;96929.72;5044683;28;20195;-64
2023/06/06 04:58:19;;;;;;;6.50;6.00;;;;;;;13.82;100.00;96923.75;4994636;28;20634;-66
2023/06/06 05:00:47;;;;;;;6.10;5.60;;;;;;;13.71;100.00;96933.22;5050675;28;20213;-65
2023/06/06 05:03:19;;;;;;;6.27;5.67;;;;;;;13.91;100.00;96934.97;5050174;28;20722;-67
2023/06/06 05:05:49;;;;;;;5.63;5.23;;;;;;;13.75;100.00;96929.13;5033783;28;20215;-64
2023/06/06 05:08:19;;;;;;;6.50;6.00;;;;;;;13.90;100.00;96925.34;5039585;28;20217;-64
2023/06/06 05:10:46;;;;;;;5.83;5.43;;;;;;;13.99;100.00;96931.28;5044685;28;20199;-66
2023/06/06 05:13:18;;;;;;;6.40;5.90;;;;;;;14.12;100.00;96917.06;5026789;28;20325;-64
2023/06/06 05:15:46;;;;;;;5.50;5.17;;;;;;;14.26;100.00;96933.81;5037778;28;20299;-63
2023/06/06 05:18:13;;;;;;;5.70;5.30;;;;;;;14.28;100.00;96924.56;5051257;28;20227;-64
2023/06/06 05:20:42;;;;;;;5.43;5.10;;;;;;;14.47;100.00;96933.47;5053722;28;20211;-63
2023/06/06 05:23:10;;;;;;;7.43;6.90;;;;;;;14.57;100.00;96935.66;5043752;28;20390;-65
2023/06/06 05:25:38;;;;;;;7.37;5.40;;;;;;;14.57;100.00;96930.31;5028995;28;20459;-62
2023/06/06 05:28:05;;;;;;;8.00;5.67;;;;;;;14.68;100.00;96931.50;5048106;28;20253;-65
2023/06/06 05:30:33;;;;;;;6.97;6.27;;;;;;;14.84;100.00;96932.00;4997123;28;20285;-64
2023/06/06 05:33:02;;;;;;;5.17;4.87;;;;;;;14.85;100.00;96925.63;5052720;28;20288;-63
2023/06/06 05:35:29;;;;;;;6.37;5.77;;;;;;;15.09;100.00;96923.19;5028408;28;20203;-64
2023/06/06 05:37:58;;;;;;;6.20;5.70;;;;;;;15.03;100.00;96915.03;5050109;28;20269;-64
2023/06/06 05:40:26;;;;;;;6.43;5.83;;;;;;;15.28;100.00;96921.38;5027396;28;20243;-65
2023/06/06 05:42:54;;;;;;;6.40;5.90;;;;;;;15.53;100.00;96920.47;5052773;28;20202;-63
2023/06/06 05:45:21;;;;;;;6.40;5.80;;;;;;;15.49;100.00;96928.13;4988838;28;20226;-64
2023/06/06 05:47:49;;;;;;;6.37;5.87;;;;;;;15.32;100.00;96925.22;5054946;28;20565;-62
2023/06/06 05:50:17;;;;;;;6.03;5.53;;;;;;;15.21;100.00;96925.97;5028885;28;20232;-65
2023/06/06 05:52:44;;;;;;;6.20;5.70;;;;;;;15.40;100.00;96924.94;5051412;28;20303;-64
2023/06/06 05:55:27;;;;;;;5.53;5.13;;;;;;;15.59;100.00;96927.63;5026090;28;20330;-65
2023/06/06 05:57:55;;;;;;;6.00;5.60;;;;;;;15.76;100.00;96925.16;5050828;28;20250;-62
2023/06/06 06:00:24;;;;;;;5.80;5.40;;;;;;;15.67;100.00;96926.50;5004236;28;20905;-60
2023/06/06 06:02:53;;;;;;;5.93;5.43;;;;;;;15.98;100.00;96927.38;5047732;28;20200;-62
2023/06/06 06:05:20;;;;;;;5.20;4.90;;;;;;;16.10;100.00;96936.28;5027813;28;20237;-65
2023/06/06 06:07:49;;;;;;;5.80;5.20;;;;;;;16.33;100.00;96937.41;5053330;28;20291;-62
2023/06/06 06:10:18;;;;;;;6.00;5.60;;;;;;;16.47;100.00;96936.19;5029179;28;20298;-65
2023/06/06 06:12:46;;;;;;;5.40;5.00;;;;;;;16.46;100.00;96939.91;5045619;28;20294;-63
2023/06/06 06:15:14;;;;;;;5.77;5.27;;;;;;;16.42;100.00;96938.72;5046993;28;20222;-65
2023/06/06 06:17:41;;;;;;;5.70;5.30;;;;;;;16.39;100.00;96946.41;4993228;28;20322;-63
2023/06/06 06:20:11;;;;;;;4.87;4.47;;;;;;;16.54;100.00;96937.97;5030650;28;20305;-65
2023/06/06 06:22:38;;;;;;;5.13;4.80;;;;;;;16.66;100.00;96940.66;5051141;28;20199;-64
2023/06/06 06:25:08;;;;;;;5.57;5.20;;;;;;;16.51;100.00;96943.78;5049566;28;20246;-62
2023/06/06 06:27:37;;;;;;;5.70;5.30;;;;;;;16.67;100.00;96943.09;5027180;28;20207;-63
2023/06/06 06:30:06;;;;;;;6.83;5.47;;;;;;;16.62;100.00;96943.78;5047607;28;20226;-65
2023/06/06 06:32:34;;;;;;;5.83;5.43;;;;;;;16.50;100.00;96953.63;4993547;28;21498;-62
2023/06/06 06:35:02;;;;;;;5.40;5.03;;;;;;;16.46;100.00;96945.25;5032300;28;20292;-65
2023/06/06 06:37:29;;;;;;;5.77;5.27;;;;;;;16.82;100.00;96947.19;5047303;28;20317;-64
2023/06/06 06:39:57;;;;;;;5.00;4.60;;;;;;;17.05;100.00;96957.16;5054793;28;21571;-65
2023/06/06 06:42:25;;;;;;;5.30;4.90;;;;;;;17.07;100.00;96952.41;5024106;28;20221;-64
2023/06/06 06:44:54;;;;;;;5.50;5.10;;;;;;;17.41;100.00;96946.47;5048194;28;20255;-66
2023/06/06 06:47:23;;;;;;;5.03;4.70;;;;;;;17.47;100.00;96946.34;5007119;28;20299;-64
2023/06/06 06:49:52;;;;;;;5.47;5.10;;;;;;;17.54;100.00;96951.56;5045470;28;20199;-64
2023/06/06 06:52:20;;;;;;;4.90;4.40;;;;;;;17.86;100.00;96945.81;5027241;28;20210;-65
2023/06/06 06:54:53;;;;;;;5.03;4.73;;;;;;;17.93;100.00;96948.38;5047558;28;20219;-64
2023/06/06 06:57:21;;;;;;;4.87;4.57;;;;;;;17.77;100.00;96944.56;5021610;28;20235;-65
2023/06/06 06:59:49;;;;;;;5.00;4.70;;;;;;;17.79;100.00;96950.50;5048310;28;20187;-63
2023/06/06 07:02:19;;;;;;;5.50;5.00;;;;;;;17.87;100.00;96950.13;5023775;28;20298;-64
2023/06/06 07:04:48;;;;;;;5.37;4.97;;;;;;;17.60;100.00;96952.50;5037988;28;20226;-63
2023/06/06 07:07:16;;;;;;;5.63;5.23;;;;;;;17.64;100.00;96949.13;5029886;28;20237;-65
2023/06/06 07:09:44;;;;;;;5.10;4.80;;;;;;;17.52;100.00;96950.97;5045981;28;20203;-65
2023/06/06 07:12:12;;;;;;;5.67;5.30;;;;;;;17.37;100.00;96951.47;5027092;28;20294;-65
2023/06/06 07:14:39;;;;;;;5.20;4.80;;;;;;;17.17;100.00;96965.19;5046296;28;21124;-63
2023/06/06 07:17:08;;;;;;;5.23;4.83;;;;;;;17.33;100.00;96951.13;5049639;28;20880;-61
2023/06/06 07:19:37;;;;;;;4.57;4.27;;;;;;;17.38;100.00;96952.28;4991518;28;20419;-64
2023/06/06 07:22:05;;;;;;;4.33;4.13;;;;;;;17.64;100.00;96946.44;5033679;28;20318;-65
2023/06/06 07:24:33;;;;;;;5.60;4.60;;;;;;;17.94;100.00;96948.13;5048279;28;20318;-66
2023/06/06 07:27:02;;;;;;;4.47;4.17;;;;;;;18.14;100.00;96944.25;5047849;28;20674;-66
2023/06/06 07:29:30;;;;;;;3.93;3.73;;;;;;;18.20;100.00;96947.84;5021393;28;20389;-64
2023/06/06 07:31:57;;;;;;;4.33;3.93;;;;;;;18.05;100.00;96938.44;5049264;28;20307;-65
2023/06/06 07:34:26;;;;;;;4.33;4.10;;;;;;;17.85;100.00;96941.50;4994448;28;20238;-63
2023/06/06 07:36:55;;;;;;;4.47;4.10;;;;;;;18.16;100.00;96944.00;5048215;28;20650;-63
2023/06/06 07:39:23;;;;;;;3.87;3.67;;;;;;;18.24;100.00;96946.31;5029018;28;20306;-65
2023/06/06 07:41:50;;;;;;;4.13;3.93;;;;;;;18.30;100.00;96944.53;5052034;28;20293;-63
2023/06/06 07:44:18;;;;;;;4.33;4.13;;;;;;;18.06;100.00;96933.91;5021642;28;20246;-64
2023/06/06 07:46:46;;;;;;;4.27;4.03;;;;;;;18.35;100.00;96948.13;5044879;28;20670;-61
2023/06/06 07:49:13;;;;;;;4.13;3.93;;;;;;;18.34;100.00;96959.09;4990035;28;20298;-63
2023/06/06 07:51:41;;;;;;;4.30;3.90;;;;;;;18.16;100.00;96947.50;5055658;28;20297;-64
2023/06/06 07:54:10;;;;;;;4.07;3.80;;;;;;;18.36;100.00;96951.63;5032296;28;20317;-62
2023/06/06 07:56:39;;;;;;;4.37;4.17;;;;;;;18.45;100.00;96952.88;5054938;28;20207;-62
2023/06/06 07:59:09;;;;;;;4.73;4.43;;;;;;;18.30;100.00;96963.31;5027672;28;20961;-62
2023/06/06 08:01:37;;;;;;;3.80;3.53;;;;;;;18.15;100.00;96953.09;5050691;28;20203;-62
2023/06/06 08:04:07;;;;;;;4.57;4.17;;;;;;;18.34;100.00;96959.09;5005188;28;20313;-64
2023/06/06 08:06:37;;;;;;;4.53;4.17;;;;;;;18.89;100.00;96964.91;5052902;28;20214;-62
2023/06/06 08:09:06;;;;;;;4.43;4.13;;;;;;;18.98;100.00;96958.09;5030000;28;20203;-65
2023/06/06 08:11:35;;;;;;;3.90;3.57;;;;;;;19.03;100.00;96950.09;5053312;28;20777;-65
2023/06/06 08:14:02;;;;;;;3.90;3.60;;;;;;;18.87;100.00;96954.38;5027340;28;20230;-66
2023/06/06 08:16:30;;;;;;;4.27;3.90;;;;;;;19.55;100.00;96950.88;5051100;28;20293;-66
2023/06/06 08:18:58;;;;;;;3.23;3.03;;;;;;;19.07;100.00;96956.63;5041119;28;22279;-66
2023/06/06 08:21:25;;;;;;;4.37;3.97;;;;;;;19.41;100.00;96949.59;4998939;28;20305;-64
2023/06/06 08:23:54;;;;;;;5.90;4.07;;;;;;;19.86;100.00;96945.88;5033816;28;20233;-65
2023/06/06 08:26:25;;;;;;;4.60;4.20;;;;;;;19.72;100.00;96950.84;5050450;28;20191;-65
2023/06/06 08:28:53;;;;;;;4.67;3.73;;;;;;;19.88;100.00;96951.84;5030671;28;20253;-63
2023/06/06 08:31:23;;;;;;;4.47;3.97;;;;;;;19.83;100.00;96950.97;5047647;28;20286;-65
2023/06/06 08:33:50;;;;;;;4.07;3.80;;;;;;;20.09;100.00;96947.56;5056012;28;20252;-63
2023/06/06 08:36:18;;;;;;;4.10;3.80;;;;;;;20.14;100.00;96954.06;4999195;28;20203;-65
2023/06/06 08:38:47;;;;;;;4.37;4.07;;;;;;;20.46;100.00;96951.44;5030837;28;20234;-64
2023/06/06 08:41:15;;;;;;;4.27;3.97;;;;;;;21.02;100.00;96950.34;5049329;28;20290;-65
2023/06/06 08:43:47;;;;;;;4.33;4.03;;;;;;;20.96;100.00;96951.38;5024251;28;20234;-64
2023/06/06 08:46:16;;;;;;;3.30;3.13;;;;;;;21.10;100.00;96954.44;5048666;28;20297;-65
2023/06/06 08:48:44;;;;;;;3.67;3.47;;;;;;;20.87;100.00;96937.59;5053633;28;20616;-62
2023/06/06 08:51:14;;;;;;;3.63;3.43;;;;;;;20.96;100.00;96940.59;5036948;28;20261;-64
2023/06/06 08:53:44;;;;;;;4.37;4.07;;;;;;;21.44;100.00;96946.06;5027787;28;20300;-66
2023/06/06 08:56:12;;;;;;;3.93;3.63;;;;;;;21.58;100.00;96941.03;5031192;28;20857;-65
2023/06/06 08:58:42;;;;;;;5.30;5.00;;;;;;;21.22;100.00;96955.09;5048353;28;20417;-64
2023/06/06 09:01:09;;;;;;;3.73;3.43;;;;;;;21.16;100.00;96960.69;5029893;28;20405;-67
2023/06/06 09:03:43;;;;;;;4.10;3.90;;;;;;;21.40;100.00;96961.13;5051106;28;20864;-64
2023/06/06 09:06:11;;;;;;;4.47;4.07;;;;;;;21.27;100.00;96964.28;5056721;28;20819;-66
2023/06/06 09:08:39;;;;;;;4.23;4.03;;;;;;;21.35;100.00;96955.72;4995182;28;20217;-65
2023/06/06 09:11:07;;;;;;;3.63;3.43;;;;;;;21.66;100.00;96951.34;5030616;28;20294;-62
2023/06/06 09:13:35;;;;;;;5.30;4.00;;;;;;;21.96;100.00;96954.44;5046177;28;20381;-66
2023/06/06 09:16:05;;;;;;;3.70;3.50;;;;;;;22.24;97.54;96952.38;5032909;28;20203;-65
2023/06/06 09:18:33;;;;;;;3.80;3.60;;;;;;;21.89;100.00;96946.63;5050517;28;20353;-64
2023/06/06 09:21:02;;;;;;;4.10;3.90;;;;;;;21.73;100.00;96945.72;5051640;28;20227;-64
2023/06/06 09:23:30;;;;;;;3.97;3.67;;;;;;;21.48;100.00;96949.06;4991327;28;20522;-63
2023/06/06 09:25:58;;;;;;;4.60;4.30;;;;;;;21.20;100.00;96959.13;5029352;28;20587;-63
2023/06/06 09:28:37;;;;;;;4.27;4.07;;;;;;;20.78;100.00;96947.16;5047774;28;20298;-62
2023/06/06 09:31:23;;;;;;;4.37;4.07;;;;;;;20.98;100.00;96948.44;5029682;28;20217;-63
2023/06/06 09:33:53;;;;;;;4.70;4.40;;;;;;;19.97;100.00;96943.38;5054719;28;20241;-61
2023/06/06 09:36:23;;;;;;;4.93;4.50;;;;;;;20.50;100.00;96943.69;5050410;28;20238;-63
2023/06/06 09:38:51;;;;;;;4.23;3.83;;;;;;;20.92;100.00;96952.97;4995411;28;20296;-64
2023/06/06 09:41:18;;;;;;;4.67;4.37;;;;;;;21.10;100.00;96949.91;5030011;28;20286;-65
2023/06/06 09:43:48;;;;;;;4.73;4.33;;;;;;;21.25;100.00;96951.88;5043874;28;20245;-64
2023/06/06 09:46:16;;;;;;;4.40;4.00;;;;;;;21.31;100.00;96947.34;5026844;28;20302;-64
2023/06/06 09:48:54;;;;;;;4.27;3.87;;;;;;;21.38;100.00;96941.72;5056517;28;20708;-63
2023/06/06 09:51:23;;;;;;;4.10;3.90;;;;;;;21.59;100.00;96939.97;5050968;28;20237;-66
2023/06/06 09:53:51;;;;;;;5.07;4.67;;;;;;;22.10;99.05;96941.28;4999608;28;20238;-63
2023/06/06 09:56:21;;;;;;;5.43;5.13;;;;;;;22.15;97.02;96933.19;5049693;28;20202;-66
2023/06/06 09:58:55;;;;;;;4.77;4.40;;;;;;;22.07;99.44;96937.25;5024580;28;20319;-65
2023/06/06 10:01:27;;;;;;;4.73;4.40;;;;;;;22.38;95.69;96937.34;5026266;28;20207;-66
2023/06/06 10:03:56;;;;;;;4.77;4.47;;;;;;;21.91;92.45;96941.75;5054331;28;20223;-66
2023/06/06 10:06:26;;;;;;;4.50;4.20;;;;;;;22.30;93.50;96945.13;5050112;28;20314;-65
2023/06/06 10:08:56;;;;;;;4.70;4.40;;;;;;;22.16;93.43;96947.50;5055908;28;20699;-65
2023/06/06 10:11:24;;;;;;;4.77;4.47;;;;;;;22.00;94.51;96936.69;4992721;28;20237;-65
2023/06/06 10:13:54;;;;;;;4.67;4.33;;;;;;;22.01;96.36;96937.47;5030380;28;20231;-64
2023/06/06 10:16:21;;;;;;;4.70;4.40;;;;;;;21.79;95.43;96941.97;5048517;28;20329;-67
2023/06/06 10:18:49;;;;;;;4.97;4.67;;;;;;;21.82;98.89;96957.63;5032752;28;20233;-65
2023/06/06 10:21:17;;;;;;;4.50;4.20;;;;;;;22.22;97.73;96949.16;5051313;28;20641;-66
2023/06/06 10:23:46;;;;;;;4.97;4.53;;;;;;;22.06;96.02;96948.28;5052888;28;20637;-66
2023/06/06 10:26:19;;;;;;;6.93;4.80;;;;;;;21.94;94.68;96951.19;4988462;28;20826;-66
2023/06/06 10:28:53;;;;;;;3.93;3.73;;;;;;;21.32;97.20;96948.94;5028519;28;20207;-66
2023/06/06 10:31:30;;;;;;;4.23;3.93;;;;;;;21.50;96.86;96949.63;5046336;28;20194;-65
2023/06/06 10:34:01;;;;;;;3.90;3.70;;;;;;;21.54;96.20;96946.13;5034724;28;20313;-64
2023/06/06 10:36:38;;;;;;;4.10;3.90;;;;;;;21.14;97.67;96952.88;5025011;28;20223;-66
2023/06/06 10:39:20;;;;;;;4.07;3.87;;;;;;;21.20;96.37;96934.88;5052831;28;20290;-64
2023/06/06 10:41:53;;;;;;;4.50;4.20;;;;;;;21.27;99.37;96950.81;5041218;28;20198;-62
2023/06/06 10:44:27;;;;;;;5.33;5.03;;;;;;;21.34;100.00;96952.19;5029060;28;20223;-67
2023/06/06 10:47:28;;;;;;;5.50;5.07;;;;;;;21.12;100.00;96955.00;5051403;28;20198;-64
2023/06/06 10:50:24;;;;;;;4.17;3.87;;;;;;;21.76;96.66;96947.06;5032785;28;20205;-64
2023/06/06 10:52:55;;;;;;;4.43;4.13;;;;;;;21.58;96.08;96959.06;5051746;28;20203;-64
2023/06/06 10:55:44;;;;;;;4.67;4.37;;;;;;;21.47;95.17;96961.72;5001738;28;21801;-64
2023/06/06 10:58:18;;;;;;;4.03;3.70;;;;;;;22.30;90.03;96943.22;5048651;28;20593;-66
2023/06/06 11:00:47;;;;;;;3.57;3.43;;;;;;;22.21;88.14;96950.22;5027032;28;20215;-65
2023/06/06 11:03:18;;;;;;;5.03;4.63;;;;;;;22.57;84.30;96941.44;5052376;28;20199;-66
2023/06/06 11:06:04;;;;;;;3.67;3.47;;;;;;;22.33;82.20;96952.69;5031620;28;20233;-66
2023/06/06 11:08:33;;;;;;;3.83;3.60;;;;;;;22.20;83.37;96959.41;5049088;28;20198;-64
2023/06/06 11:11:35;;;;;;;3.73;3.53;;;;;;;22.43;85.77;96950.00;5048600;28;20646;-64
2023/06/06 11:14:04;;;;;;;4.80;4.43;;;;;;;22.54;87.41;96953.59;5045461;28;20226;-64
2023/06/06 11:17:02;;;;;;;4.87;4.47;;;;;;;22.22;88.34;96949.16;5026084;28;20215;-64
2023/06/06 11:19:37;;;;;;;2.83;2.70;;;;;;;21.89;82.77;96959.28;5026168;28;20401;-65
2023/06/06 11:22:05;;;;;;;3.23;3.10;;;;;;;21.65;86.24;96959.72;5052830;28;20199;-64
2023/06/06 11:24:35;;;;;;;3.37;3.17;;;;;;;21.74;84.98;96950.03;5049126;28;20478;-65
2023/06/06 11:27:09;;;;;;;2.60;2.50;;;;;;;21.66;81.06;96956.75;4993014;28;20321;-65
2023/06/06 11:29:37;;;;;;;3.63;3.43;;;;;;;21.44;83.23;96947.97;5043781;28;20721;-65
2023/06/06 11:32:10;;;;;;;3.03;2.93;;;;;;;21.77;84.28;96949.53;5030443;28;20604;-64
2023/06/06 11:34:38;;;;;;;3.43;3.13;;;;;;;21.71;84.39;96947.06;5051974;28;20617;-63
2023/06/06 11:37:07;;;;;;;2.90;2.70;;;;;;;21.73;85.92;96945.72;5028004;28;20211;-64